Time,TemperatureF,DewpointF,PressureIn,WindDirection,WindDirectionDegrees,WindSpeedMPH,WindSpeedGustMPH,Humidity,HourlyPrecipIn,Conditions,Clouds,dailyrainin,SoftwareType,DateUTC
2013-08-28 13:14:00,78.0,73.0,29.89,NW,319,4.0,10.0,85,0.00,,,0.00,,2013-08-28 17:14:00,
2013-08-28 13:24:00,79.0,74.0,29.89,NW,309,3.0,8.0,84,0.00,,,0.00,,2013-08-28 17:24:00,
2013-08-28 13:52:00,79.0,74.0,29.90,NNW,342,4.0,11.0,84,0.00,,,0.00,,2013-08-28 17:52:00,
2013-08-28 14:12:00,80.0,75.0,29.90,NNW,342,5.0,11.0,84,0.00,,,0.00,,2013-08-28 18:12:00,
2013-08-28 14:22:00,79.0,73.0,29.90,NNW,335,6.0,11.0,82,0.00,,,0.00,,2013-08-28 18:22:00,
2013-08-28 14:42:00,80.0,73.0,29.91,NNW,340,8.0,13.0,80,0.00,,,0.00,,2013-08-28 18:42:00,
2013-08-28 14:52:00,79.0,73.0,29.91,NNW,338,6.0,13.0,83,0.00,,,0.00,,2013-08-28 18:52:00,
2013-08-28 15:12:00,79.0,73.0,29.91,NNW,341,7.0,13.0,83,0.00,,,0.00,,2013-08-28 19:12:00,
2013-08-28 15:22:00,79.0,74.0,29.91,NNW,342,7.0,12.0,84,0.00,,,0.00,,2013-08-28 19:22:00,
2013-08-28 15:42:00,79.0,74.0,29.91,NW,323,4.0,10.0,84,0.00,,,0.00,,2013-08-28 19:42:00,
2013-08-28 15:52:00,80.0,74.0,29.91,NW,325,4.0,11.0,82,0.00,,,0.00,,2013-08-28 19:52:00,
2013-08-28 16:12:00,79.0,73.0,29.91,NW,315,4.0,12.0,82,0.00,,,0.00,,2013-08-28 20:12:00,
2013-08-28 16:23:00,80.0,74.0,29.91,NNW,327,0.0,8.0,83,0.00,,,0.00,,2013-08-28 20:23:00,
2013-08-28 16:43:00,79.0,73.0,29.92,NNW,336,4.0,8.0,82,0.00,,,0.00,,2013-08-28 20:43:00,
2013-08-28 16:52:00,80.0,74.0,29.91,NNW,346,5.0,9.0,82,0.00,,,0.00,,2013-08-28 20:52:00,
2013-08-28 17:12:00,81.0,75.0,29.91,WNW,282,4.0,9.0,81,0.00,,,0.00,,2013-08-28 21:12:00,
2013-08-28 17:22:00,80.0,74.0,29.92,NNW,336,5.0,10.0,81,0.00,,,0.00,,2013-08-28 21:22:00,
2013-08-28 17:44:00,80.0,74.0,29.92,NNW,342,4.0,11.0,81,0.00,,,0.00,,2013-08-28 21:44:00,
2013-08-28 17:57:00,80.0,73.0,29.92,North,350,2.0,7.0,80,0.00,,,0.00,,2013-08-28 21:57:00,
2013-08-28 18:15:00,81.0,74.0,29.91,NNW,333,3.0,9.0,80,0.00,,,0.00,,2013-08-28 22:15:00,
2013-08-28 18:25:00,81.0,74.0,29.92,NNE,24,3.0,8.0,80,0.00,,,0.00,,2013-08-28 22:25:00,
2013-08-28 18:43:00,81.0,74.0,29.92,NNW,327,4.0,9.0,79,0.00,,,0.00,,2013-08-28 22:43:00,
2013-08-28 18:54:00,79.0,73.0,29.93,NNW,344,3.0,12.0,81,0.00,,,0.00,,2013-08-28 22:54:00,
2013-08-28 19:13:00,79.0,73.0,29.93,WNW,303,3.0,10.0,82,0.00,,,0.00,,2013-08-28 23:13:00,
2013-08-28 19:22:00,78.0,72.0,29.93,NNW,339,2.0,8.0,83,0.00,,,0.00,,2013-08-28 23:22:00,
2013-08-28 19:42:00,77.0,72.0,29.93,NNW,345,4.0,9.0,85,0.00,,,0.00,,2013-08-28 23:42:00,
2013-08-28 19:53:00,76.0,72.0,29.94,NNW,338,4.0,9.0,86,0.00,,,0.00,,2013-08-28 23:53:00,
2013-08-28 20:11:00,75.0,71.0,29.94,NNW,341,4.0,8.0,88,0.00,,,0.00,,2013-08-29 00:11:00,
2013-08-28 21:12:00,72.0,70.0,29.95,NNW,331,2.0,5.0,92,0.00,,,0.00,,2013-08-29 01:12:00,
2013-08-28 21:22:00,71.0,69.0,29.96,NNW,339,3.0,5.0,93,0.00,,,0.00,,2013-08-29 01:22:00,
2013-08-28 21:42:00,71.0,69.0,29.97,NNW,346,3.0,6.0,94,0.00,,,0.00,,2013-08-29 01:42:00,
2013-08-28 21:52:00,71.0,69.0,29.97,NNW,336,2.0,6.0,94,0.00,,,0.00,,2013-08-29 01:52:00,
2013-08-28 22:11:00,71.0,69.0,29.97,NNW,334,2.0,6.0,94,0.00,,,0.00,,2013-08-29 02:11:00,
2013-08-28 22:22:00,71.0,69.0,29.98,NNW,335,2.0,6.0,95,0.00,,,0.00,,2013-08-29 02:22:00,
2013-08-28 23:11:00,70.0,68.0,29.99,NNW,337,2.0,6.0,95,0.00,,,0.00,,2013-08-29 03:11:00,
2013-08-28 23:23:00,69.0,68.0,30.00,NNW,336,2.0,4.0,95,0.00,,,0.00,,2013-08-29 03:23:00,
2013-08-28 23:45:00,69.0,68.0,30.00,NNW,336,0.0,3.0,95,0.00,,,0.00,,2013-08-29 03:45:00,
2013-08-28 23:56:00,69.0,68.0,30.00,NNW,336,0.0,3.0,95,0.00,,,0.00,,2013-08-29 03:56:00,